sensor_id;sensor_type;location;lat;lon;timestamp;temperature;humidity
34815;DHT22;21030;53.912;15.214;2023-04-19T00:00:15;31.40;21.70
34815;DHT22;21030;53.912;15.214;2023-04-19T00:02:42;31.10;21.90
34815;DHT22;21030;53.912;15.214;2023-04-19T00:05:10;31.30;22.10
34815;DHT22;21030;53.912;15.214;2023-04-19T00:07:39;31.20;22.10
34815;DHT22;21030;53.912;15.214;2023-04-19T00:10:07;31.00;22.30
34815;DHT22;21030;53.912;15.214;2023-04-19T00:12:35;31.30;22.20
34815;DHT22;21030;53.912;15.214;2023-04-19T00:15:02;31.00;22.10
34815;DHT22;21030;53.912;15.214;2023-04-19T00:17:29;30.90;22.30
34815;DHT22;21030;53.912;15.214;2023-04-19T00:19:56;31.00;22.30
34815;DHT22;21030;53.912;15.214;2023-04-19T00:22:23;30.90;22.40
34815;DHT22;21030;53.912;15.214;2023-04-19T00:24:51;30.90;22.50
34815;DHT22;21030;53.912;15.214;2023-04-19T00:27:18;31.10;22.50
34815;DHT22;21030;53.912;15.214;2023-04-19T00:29:45;30.80;22.50
34815;DHT22;21030;53.912;15.214;2023-04-19T00:32:12;30.60;22.70
34815;DHT22;21030;53.912;15.214;2023-04-19T00:34:39;30.30;23.00
34815;DHT22;21030;53.912;15.214;2023-04-19T00:37:08;30.50;23.10
34815;DHT22;21030;53.912;15.214;2023-04-19T00:39:36;30.40;22.80
34815;DHT22;21030;53.912;15.214;2023-04-19T00:42:03;30.20;23.40
34815;DHT22;21030;53.912;15.214;2023-04-19T00:44:30;30.10;23.10
34815;DHT22;21030;53.912;15.214;2023-04-19T00:46:58;30.40;23.00
34815;DHT22;21030;53.912;15.214;2023-04-19T00:49:26;30.30;22.90
34815;DHT22;21030;53.912;15.214;2023-04-19T00:51:55;30.50;22.70
34815;DHT22;21030;53.912;15.214;2023-04-19T00:54:22;30.70;22.50
34815;DHT22;21030;53.912;15.214;2023-04-19T00:56:50;30.50;22.60
34815;DHT22;21030;53.912;15.214;2023-04-19T00:59:17;30.60;22.80
34815;DHT22;21030;53.912;15.214;2023-04-19T01:01:45;30.40;22.60
34815;DHT22;21030;53.912;15.214;2023-04-19T01:04:12;30.90;22.50
34815;DHT22;21030;53.912;15.214;2023-04-19T01:06:40;30.30;22.40
34815;DHT22;21030;53.912;15.214;2023-04-19T01:09:07;30.50;22.60
34815;DHT22;21030;53.912;15.214;2023-04-19T01:11:35;30.30;22.50
34815;DHT22;21030;53.912;15.214;2023-04-19T01:14:02;30.70;22.50
34815;DHT22;21030;53.912;15.214;2023-04-19T01:16:29;30.60;22.60
34815;DHT22;21030;53.912;15.214;2023-04-19T01:18:56;30.70;22.50
34815;DHT22;21030;53.912;15.214;2023-04-19T01:21:23;30.50;22.50
34815;DHT22;21030;53.912;15.214;2023-04-19T01:23:50;30.60;22.50
34815;DHT22;21030;53.912;15.214;2023-04-19T01:26:18;30.30;22.60
34815;DHT22;21030;53.912;15.214;2023-04-19T01:28:45;29.80;23.00
34815;DHT22;21030;53.912;15.214;2023-04-19T01:31:12;30.00;23.00
34815;DHT22;21030;53.912;15.214;2023-04-19T01:33:41;30.30;22.70
34815;DHT22;21030;53.912;15.214;2023-04-19T01:36:08;30.00;22.70
34815;DHT22;21030;53.912;15.214;2023-04-19T01:38:35;29.80;22.80
34815;DHT22;21030;53.912;15.214;2023-04-19T01:41:02;30.00;23.10
34815;DHT22;21030;53.912;15.214;2023-04-19T01:43:30;30.00;23.00
34815;DHT22;21030;53.912;15.214;2023-04-19T01:45:57;30.10;22.90
34815;DHT22;21030;53.912;15.214;2023-04-19T01:48:24;29.90;23.10
34815;DHT22;21030;53.912;15.214;2023-04-19T01:50:51;30.00;22.80
34815;DHT22;21030;53.912;15.214;2023-04-19T01:53:18;30.50;22.70
34815;DHT22;21030;53.912;15.214;2023-04-19T01:55:45;30.60;22.40
34815;DHT22;21030;53.912;15.214;2023-04-19T01:58:12;30.60;22.50
34815;DHT22;21030;53.912;15.214;2023-04-19T02:00:39;30.20;22.70
34815;DHT22;21030;53.912;15.214;2023-04-19T02:03:06;30.20;22.80
34815;DHT22;21030;53.912;15.214;2023-04-19T02:05:33;30.40;22.70
34815;DHT22;21030;53.912;15.214;2023-04-19T02:08:01;30.80;22.50
34815;DHT22;21030;53.912;15.214;2023-04-19T02:10:28;30.60;22.30
34815;DHT22;21030;53.912;15.214;2023-04-19T02:12:55;30.80;22.40
34815;DHT22;21030;53.912;15.214;2023-04-19T02:15:22;30.80;22.20
34815;DHT22;21030;53.912;15.214;2023-04-19T02:17:49;30.90;22.30
34815;DHT22;21030;53.912;15.214;2023-04-19T02:20:16;30.70;22.40
34815;DHT22;21030;53.912;15.214;2023-04-19T02:22:43;30.70;22.50
34815;DHT22;21030;53.912;15.214;2023-04-19T02:25:10;30.80;22.30
34815;DHT22;21030;53.912;15.214;2023-04-19T02:27:37;30.80;22.40
34815;DHT22;21030;53.912;15.214;2023-04-19T02:30:05;30.90;22.20
34815;DHT22;21030;53.912;15.214;2023-04-19T02:32:32;31.30;22.10
34815;DHT22;21030;53.912;15.214;2023-04-19T02:34:59;31.20;21.90
34815;DHT22;21030;53.912;15.214;2023-04-19T02:37:26;31.00;22.00
34815;DHT22;21030;53.912;15.214;2023-04-19T02:39:54;31.20;22.10
34815;DHT22;21030;53.912;15.214;2023-04-19T02:42:21;31.30;21.90
34815;DHT22;21030;53.912;15.214;2023-04-19T02:44:48;31.00;22.00
34815;DHT22;21030;53.912;15.214;2023-04-19T02:47:15;31.20;22.00
34815;DHT22;21030;53.912;15.214;2023-04-19T02:49:42;30.50;22.30
34815;DHT22;21030;53.912;15.214;2023-04-19T02:52:09;30.40;22.50
34815;DHT22;21030;53.912;15.214;2023-04-19T02:54:36;30.50;22.40
34815;DHT22;21030;53.912;15.214;2023-04-19T02:57:03;30.60;22.50
34815;DHT22;21030;53.912;15.214;2023-04-19T02:59:30;30.40;22.50
34815;DHT22;21030;53.912;15.214;2023-04-19T03:01:57;30.40;22.50
34815;DHT22;21030;53.912;15.214;2023-04-19T03:04:24;30.40;22.50
34815;DHT22;21030;53.912;15.214;2023-04-19T03:06:52;30.10;22.50
34815;DHT22;21030;53.912;15.214;2023-04-19T03:09:19;30.10;22.70
34815;DHT22;21030;53.912;15.214;2023-04-19T03:11:48;30.30;22.70
34815;DHT22;21030;53.912;15.214;2023-04-19T03:14:15;30.30;22.50
34815;DHT22;21030;53.912;15.214;2023-04-19T03:16:42;30.30;22.70
34815;DHT22;21030;53.912;15.214;2023-04-19T03:19:09;30.30;22.50
34815;DHT22;21030;53.912;15.214;2023-04-19T03:21:36;30.60;22.50
34815;DHT22;21030;53.912;15.214;2023-04-19T03:24:03;30.30;22.50
34815;DHT22;21030;53.912;15.214;2023-04-19T03:26:31;30.30;22.70
34815;DHT22;21030;53.912;15.214;2023-04-19T03:28:58;30.00;22.60
34815;DHT22;21030;53.912;15.214;2023-04-19T03:31:25;30.50;22.60
34815;DHT22;21030;53.912;15.214;2023-04-19T03:33:52;30.40;22.50
34815;DHT22;21030;53.912;15.214;2023-04-19T03:36:20;30.40;22.60
34815;DHT22;21030;53.912;15.214;2023-04-19T03:38:47;30.70;22.50
34815;DHT22;21030;53.912;15.214;2023-04-19T03:41:24;30.20;22.70
34815;DHT22;21030;53.912;15.214;2023-04-19T03:43:52;30.20;22.90
34815;DHT22;21030;53.912;15.214;2023-04-19T03:46:19;30.10;22.70
34815;DHT22;21030;53.912;15.214;2023-04-19T03:48:47;29.60;23.00
34815;DHT22;21030;53.912;15.214;2023-04-19T03:51:14;29.30;23.20
34815;DHT22;21030;53.912;15.214;2023-04-19T03:53:42;29.20;23.40
34815;DHT22;21030;53.912;15.214;2023-04-19T03:56:10;28.90;23.70
34815;DHT22;21030;53.912;15.214;2023-04-19T03:58:38;28.40;23.90
34815;DHT22;21030;53.912;15.214;2023-04-19T04:01:16;28.50;24.10
34815;DHT22;21030;53.912;15.214;2023-04-19T04:03:43;28.10;24.40
34815;DHT22;21030;53.912;15.214;2023-04-19T04:06:10;28.50;24.30
34815;DHT22;21030;53.912;15.214;2023-04-19T04:08:37;28.20;24.20
34815;DHT22;21030;53.912;15.214;2023-04-19T04:11:04;28.70;24.20
34815;DHT22;21030;53.912;15.214;2023-04-19T04:13:31;28.80;24.10
34815;DHT22;21030;53.912;15.214;2023-04-19T04:15:58;29.20;23.80
34815;DHT22;21030;53.912;15.214;2023-04-19T04:18:26;28.80;24.00
34815;DHT22;21030;53.912;15.214;2023-04-19T04:20:54;29.00;23.90
34815;DHT22;21030;53.912;15.214;2023-04-19T04:23:24;29.30;23.60
34815;DHT22;21030;53.912;15.214;2023-04-19T04:25:58;28.90;23.60
34815;DHT22;21030;53.912;15.214;2023-04-19T04:28:30;29.40;23.80
34815;DHT22;21030;53.912;15.214;2023-04-19T04:30:58;29.80;23.20
34815;DHT22;21030;53.912;15.214;2023-04-19T04:33:26;29.80;23.20
34815;DHT22;21030;53.912;15.214;2023-04-19T04:35:54;29.70;23.20
34815;DHT22;21030;53.912;15.214;2023-04-19T04:38:23;29.90;23.10
34815;DHT22;21030;53.912;15.214;2023-04-19T04:40:52;29.90;23.00
34815;DHT22;21030;53.912;15.214;2023-04-19T04:43:23;30.10;23.10
34815;DHT22;21030;53.912;15.214;2023-04-19T04:45:51;30.00;23.00
34815;DHT22;21030;53.912;15.214;2023-04-19T04:48:21;29.40;22.90
34815;DHT22;21030;53.912;15.214;2023-04-19T04:50:48;30.00;23.70
34815;DHT22;21030;53.912;15.214;2023-04-19T04:53:15;30.40;22.90
34815;DHT22;21030;53.912;15.214;2023-04-19T04:55:43;30.40;22.70
34815;DHT22;21030;53.912;15.214;2023-04-19T04:58:10;30.10;22.60
34815;DHT22;21030;53.912;15.214;2023-04-19T05:00:37;30.20;22.90
34815;DHT22;21030;53.912;15.214;2023-04-19T05:03:04;30.20;22.80
34815;DHT22;21030;53.912;15.214;2023-04-19T05:05:32;30.40;22.70
34815;DHT22;21030;53.912;15.214;2023-04-19T05:07:59;30.80;22.70
34815;DHT22;21030;53.912;15.214;2023-04-19T05:10:27;30.50;22.50
34815;DHT22;21030;53.912;15.214;2023-04-19T05:12:54;30.10;22.70
34815;DHT22;21030;53.912;15.214;2023-04-19T05:15:21;30.10;22.80
34815;DHT22;21030;53.912;15.214;2023-04-19T05:17:49;30.20;22.80
34815;DHT22;21030;53.912;15.214;2023-04-19T05:20:16;30.20;22.60
34815;DHT22;21030;53.912;15.214;2023-04-19T05:22:44;30.20;22.80
34815;DHT22;21030;53.912;15.214;2023-04-19T05:25:11;30.30;22.40
34815;DHT22;21030;53.912;15.214;2023-04-19T05:27:38;29.90;22.50
34815;DHT22;21030;53.912;15.214;2023-04-19T05:30:05;29.80;22.80
34815;DHT22;21030;53.912;15.214;2023-04-19T05:32:33;30.10;22.60
34815;DHT22;21030;53.912;15.214;2023-04-19T05:35:00;29.70;22.60
34815;DHT22;21030;53.912;15.214;2023-04-19T05:37:27;29.00;23.00
34815;DHT22;21030;53.912;15.214;2023-04-19T05:39:54;29.30;23.20
34815;DHT22;21030;53.912;15.214;2023-04-19T05:42:21;29.30;22.90
34815;DHT22;21030;53.912;15.214;2023-04-19T05:44:48;29.80;23.10
34815;DHT22;21030;53.912;15.214;2023-04-19T05:47:15;29.40;22.80
34815;DHT22;21030;53.912;15.214;2023-04-19T05:49:43;29.40;23.10
34815;DHT22;21030;53.912;15.214;2023-04-19T05:52:10;29.00;23.00
34815;DHT22;21030;53.912;15.214;2023-04-19T05:54:39;29.20;23.10
34815;DHT22;21030;53.912;15.214;2023-04-19T05:57:06;29.20;22.90
34815;DHT22;21030;53.912;15.214;2023-04-19T05:59:33;30.40;23.00
34815;DHT22;21030;53.912;15.214;2023-04-19T06:02:00;30.80;22.50
34815;DHT22;21030;53.912;15.214;2023-04-19T06:04:28;31.10;21.70
34815;DHT22;21030;53.912;15.214;2023-04-19T06:06:55;30.80;21.90
34815;DHT22;21030;53.912;15.214;2023-04-19T06:09:22;31.90;21.70
34815;DHT22;21030;53.912;15.214;2023-04-19T06:11:49;31.40;21.10
34815;DHT22;21030;53.912;15.214;2023-04-19T06:14:18;30.90;21.20
34815;DHT22;21030;53.912;15.214;2023-04-19T06:16:45;30.60;21.40
34815;DHT22;21030;53.912;15.214;2023-04-19T06:19:12;29.30;21.80
34815;DHT22;21030;53.912;15.214;2023-04-19T06:21:40;30.10;22.00
34815;DHT22;21030;53.912;15.214;2023-04-19T06:24:07;29.90;22.10
34815;DHT22;21030;53.912;15.214;2023-04-19T06:26:34;29.90;21.80
34815;DHT22;21030;53.912;15.214;2023-04-19T06:29:01;31.30;22.10
34815;DHT22;21030;53.912;15.214;2023-04-19T06:31:28;32.10;20.90
34815;DHT22;21030;53.912;15.214;2023-04-19T06:33:56;32.60;20.70
34815;DHT22;21030;53.912;15.214;2023-04-19T06:36:23;31.80;20.40
34815;DHT22;21030;53.912;15.214;2023-04-19T06:38:50;31.00;21.00
34815;DHT22;21030;53.912;15.214;2023-04-19T06:41:17;31.50;21.20
34815;DHT22;21030;53.912;15.214;2023-04-19T06:43:45;33.00;21.00
34815;DHT22;21030;53.912;15.214;2023-04-19T06:46:12;31.70;20.50
34815;DHT22;21030;53.912;15.214;2023-04-19T06:48:42;32.10;21.50
34815;DHT22;21030;53.912;15.214;2023-04-19T06:51:09;31.00;20.70
34815;DHT22;21030;53.912;15.214;2023-04-19T06:53:36;30.40;21.40
34815;DHT22;21030;53.912;15.214;2023-04-19T06:56:04;30.40;21.70
34815;DHT22;21030;53.912;15.214;2023-04-19T06:58:31;30.20;21.70
34815;DHT22;21030;53.912;15.214;2023-04-19T07:01:02;30.10;21.70
34815;DHT22;21030;53.912;15.214;2023-04-19T07:03:30;30.50;21.90
34815;DHT22;21030;53.912;15.214;2023-04-19T07:05:57;30.20;21.50
34815;DHT22;21030;53.912;15.214;2023-04-19T07:08:25;31.80;21.50
34815;DHT22;21030;53.912;15.214;2023-04-19T07:11:04;31.20;20.80
34815;DHT22;21030;53.912;15.214;2023-04-19T07:13:31;31.80;20.80
34815;DHT22;21030;53.912;15.214;2023-04-19T07:15:59;32.50;20.50
34815;DHT22;21030;53.912;15.214;2023-04-19T07:18:29;32.40;19.80
34815;DHT22;21030;53.912;15.214;2023-04-19T07:20:56;32.30;20.00
34815;DHT22;21030;53.912;15.214;2023-04-19T07:23:23;33.60;20.00
34815;DHT22;21030;53.912;15.214;2023-04-19T07:25:51;34.60;19.70
34815;DHT22;21030;53.912;15.214;2023-04-19T07:28:18;35.00;19.00
34815;DHT22;21030;53.912;15.214;2023-04-19T07:30:45;34.00;18.50
34815;DHT22;21030;53.912;15.214;2023-04-19T07:33:12;33.60;19.30
34815;DHT22;21030;53.912;15.214;2023-04-19T07:35:39;33.80;19.40
34815;DHT22;21030;53.912;15.214;2023-04-19T07:38:06;34.30;19.50
34815;DHT22;21030;53.912;15.214;2023-04-19T07:40:33;33.70;19.40
34815;DHT22;21030;53.912;15.214;2023-04-19T07:43:00;33.00;19.20
34815;DHT22;21030;53.912;15.214;2023-04-19T07:45:30;33.00;19.30
34815;DHT22;21030;53.912;15.214;2023-04-19T07:47:57;33.80;19.50
34815;DHT22;21030;53.912;15.214;2023-04-19T07:50:24;34.00;19.20
34815;DHT22;21030;53.912;15.214;2023-04-19T07:52:52;34.00;18.60
34815;DHT22;21030;53.912;15.214;2023-04-19T07:55:20;34.60;19.10
34815;DHT22;21030;53.912;15.214;2023-04-19T07:57:47;35.40;18.90
34815;DHT22;21030;53.912;15.214;2023-04-19T08:00:18;34.70;18.10
34815;DHT22;21030;53.912;15.214;2023-04-19T08:02:47;35.30;18.20
34815;DHT22;21030;53.912;15.214;2023-04-19T08:05:15;34.80;18.20
34815;DHT22;21030;53.912;15.214;2023-04-19T08:07:43;35.40;18.30
34815;DHT22;21030;53.912;15.214;2023-04-19T08:10:11;35.00;18.00
34815;DHT22;21030;53.912;15.214;2023-04-19T08:12:38;35.30;18.30
34815;DHT22;21030;53.912;15.214;2023-04-19T08:15:25;36.10;18.30
34815;DHT22;21030;53.912;15.214;2023-04-19T08:17:56;35.70;17.60
34815;DHT22;21030;53.912;15.214;2023-04-19T08:20:23;35.50;18.10
34815;DHT22;21030;53.912;15.214;2023-04-19T08:22:50;35.30;17.80
34815;DHT22;21030;53.912;15.214;2023-04-19T08:25:17;35.60;17.90
34815;DHT22;21030;53.912;15.214;2023-04-19T08:27:44;35.60;17.90
34815;DHT22;21030;53.912;15.214;2023-04-19T08:30:12;35.70;18.10
34815;DHT22;21030;53.912;15.214;2023-04-19T08:32:39;36.00;17.80
34815;DHT22;21030;53.912;15.214;2023-04-19T08:35:06;36.50;18.00
34815;DHT22;21030;53.912;15.214;2023-04-19T08:37:34;36.50;17.70
34815;DHT22;21030;53.912;15.214;2023-04-19T08:40:02;36.10;17.70
34815;DHT22;21030;53.912;15.214;2023-04-19T08:42:31;35.60;17.40
34815;DHT22;21030;53.912;15.214;2023-04-19T08:45:03;35.30;17.90
34815;DHT22;21030;53.912;15.214;2023-04-19T08:47:38;35.70;17.80
34815;DHT22;21030;53.912;15.214;2023-04-19T08:50:08;36.00;17.80
34815;DHT22;21030;53.912;15.214;2023-04-19T08:52:55;36.30;17.60
34815;DHT22;21030;53.912;15.214;2023-04-19T08:55:42;36.70;17.80
34815;DHT22;21030;53.912;15.214;2023-04-19T08:58:29;37.10;17.40
34815;DHT22;21030;53.912;15.214;2023-04-19T09:01:19;37.10;17.00
34815;DHT22;21030;53.912;15.214;2023-04-19T09:04:02;36.00;16.80
34815;DHT22;21030;53.912;15.214;2023-04-19T09:06:51;36.40;17.50
34815;DHT22;21030;53.912;15.214;2023-04-19T09:09:26;35.90;17.20
34815;DHT22;21030;53.912;15.214;2023-04-19T09:12:15;37.20;17.50
34815;DHT22;21030;53.912;15.214;2023-04-19T09:14:45;38.00;16.80
34815;DHT22;21030;53.912;15.214;2023-04-19T09:17:28;37.40;16.20
34815;DHT22;21030;53.912;15.214;2023-04-19T09:19:56;37.30;16.30
34815;DHT22;21030;53.912;15.214;2023-04-19T09:22:24;36.50;16.20
34815;DHT22;21030;53.912;15.214;2023-04-19T09:24:52;36.50;17.00
34815;DHT22;21030;53.912;15.214;2023-04-19T09:27:39;37.00;17.10
34815;DHT22;21030;53.912;15.214;2023-04-19T09:30:06;37.80;16.50
34815;DHT22;21030;53.912;15.214;2023-04-19T09:32:47;37.70;15.90
34815;DHT22;21030;53.912;15.214;2023-04-19T09:35:15;37.70;15.80
34815;DHT22;21030;53.912;15.214;2023-04-19T09:37:42;36.50;15.90
34815;DHT22;21030;53.912;15.214;2023-04-19T09:40:23;35.80;16.30
34815;DHT22;21030;53.912;15.214;2023-04-19T09:42:50;36.50;16.70
34815;DHT22;21030;53.912;15.214;2023-04-19T09:45:21;36.10;16.60
34815;DHT22;21030;53.912;15.214;2023-04-19T09:48:04;36.50;16.70
34815;DHT22;21030;53.912;15.214;2023-04-19T09:50:34;36.30;16.80
34815;DHT22;21030;53.912;15.214;2023-04-19T09:53:22;36.80;16.70
34815;DHT22;21030;53.912;15.214;2023-04-19T09:55:50;36.50;16.40
34815;DHT22;21030;53.912;15.214;2023-04-19T09:58:29;36.00;16.70
34815;DHT22;21030;53.912;15.214;2023-04-19T10:00:59;35.50;16.70
34815;DHT22;21030;53.912;15.214;2023-04-19T10:03:41;35.40;16.90
34815;DHT22;21030;53.912;15.214;2023-04-19T10:06:16;35.30;16.80
34815;DHT22;21030;53.912;15.214;2023-04-19T10:09:04;36.00;16.80
34815;DHT22;21030;53.912;15.214;2023-04-19T10:11:36;36.70;17.10
34815;DHT22;21030;53.912;15.214;2023-04-19T10:14:12;36.70;16.80
34815;DHT22;21030;53.912;15.214;2023-04-19T10:16:40;37.00;16.50
34815;DHT22;21030;53.912;15.214;2023-04-19T10:19:11;36.70;16.70
34815;DHT22;21030;53.912;15.214;2023-04-19T10:21:40;36.70;16.50
34815;DHT22;21030;53.912;15.214;2023-04-19T10:24:09;36.60;16.70
34815;DHT22;21030;53.912;15.214;2023-04-19T10:27:07;36.90;16.70
34815;DHT22;21030;53.912;15.214;2023-04-19T10:29:59;37.10;16.60
34815;DHT22;21030;53.912;15.214;2023-04-19T10:32:40;36.80;16.50
34815;DHT22;21030;53.912;15.214;2023-04-19T10:35:19;37.10;16.50
34815;DHT22;21030;53.912;15.214;2023-04-19T10:38:04;37.00;16.20
34815;DHT22;21030;53.912;15.214;2023-04-19T10:43:27;36.90;15.90
34815;DHT22;21030;53.912;15.214;2023-04-19T10:45:58;37.60;16.40
34815;DHT22;21030;53.912;15.214;2023-04-19T10:51:36;36.40;16.50
34815;DHT22;21030;53.912;15.214;2023-04-19T10:54:26;37.40;16.50
34815;DHT22;21030;53.912;15.214;2023-04-19T10:56:58;36.30;15.90
34815;DHT22;21030;53.912;15.214;2023-04-19T10:59:29;37.10;17.00
34815;DHT22;21030;53.912;15.214;2023-04-19T11:01:58;36.80;16.40
34815;DHT22;21030;53.912;15.214;2023-04-19T11:04:56;37.10;16.50
34815;DHT22;21030;53.912;15.214;2023-04-19T11:07:17;36.30;16.10
34815;DHT22;21030;53.912;15.214;2023-04-19T11:09:45;35.60;16.30
34815;DHT22;21030;53.912;15.214;2023-04-19T11:12:16;35.20;16.70
34815;DHT22;21030;53.912;15.214;2023-04-19T11:14:44;34.30;17.50
34815;DHT22;21030;53.912;15.214;2023-04-19T11:17:25;33.60;17.50
34815;DHT22;21030;53.912;15.214;2023-04-19T11:20:08;33.10;18.00
34815;DHT22;21030;53.912;15.214;2023-04-19T11:22:42;32.90;18.00
34815;DHT22;21030;53.912;15.214;2023-04-19T11:25:12;32.40;18.50
34815;DHT22;21030;53.912;15.214;2023-04-19T11:27:40;32.50;18.50
34815;DHT22;21030;53.912;15.214;2023-04-19T11:30:27;32.90;18.80
34815;DHT22;21030;53.912;15.214;2023-04-19T11:32:56;33.40;18.70
34815;DHT22;21030;53.912;15.214;2023-04-19T11:35:25;32.30;18.00
34815;DHT22;21030;53.912;15.214;2023-04-19T11:37:54;33.50;18.40
34815;DHT22;21030;53.912;15.214;2023-04-19T11:40:23;33.50;18.00
34815;DHT22;21030;53.912;15.214;2023-04-19T11:42:59;33.40;17.90
34815;DHT22;21030;53.912;15.214;2023-04-19T11:45:28;33.70;18.20
34815;DHT22;21030;53.912;15.214;2023-04-19T11:48:03;34.10;17.90
34815;DHT22;21030;53.912;15.214;2023-04-19T11:50:49;34.50;17.90
34815;DHT22;21030;53.912;15.214;2023-04-19T11:55:44;34.90;17.50
34815;DHT22;21030;53.912;15.214;2023-04-19T11:58:36;34.70;17.50
34815;DHT22;21030;53.912;15.214;2023-04-19T12:01:12;35.10;17.50
34815;DHT22;21030;53.912;15.214;2023-04-19T12:03:44;35.30;17.40
34815;DHT22;21030;53.912;15.214;2023-04-19T12:06:28;36.20;17.20
34815;DHT22;21030;53.912;15.214;2023-04-19T12:08:57;34.60;16.90
34815;DHT22;21030;53.912;15.214;2023-04-19T12:11:40;34.10;17.60
34815;DHT22;21030;53.912;15.214;2023-04-19T12:14:15;33.80;17.60
34815;DHT22;21030;53.912;15.214;2023-04-19T12:16:43;34.60;18.00
34815;DHT22;21030;53.912;15.214;2023-04-19T12:19:18;34.10;17.80
34815;DHT22;21030;53.912;15.214;2023-04-19T12:21:46;32.60;18.10
34815;DHT22;21030;53.912;15.214;2023-04-19T12:24:14;32.30;18.90
34815;DHT22;21030;53.912;15.214;2023-04-19T12:26:53;31.50;18.90
34815;DHT22;21030;53.912;15.214;2023-04-19T12:29:22;30.70;19.70
34815;DHT22;21030;53.912;15.214;2023-04-19T12:31:49;31.00;20.50
34815;DHT22;21030;53.912;15.214;2023-04-19T12:34:16;29.60;20.60
34815;DHT22;21030;53.912;15.214;2023-04-19T12:36:44;29.30;21.10
34815;DHT22;21030;53.912;15.214;2023-04-19T12:39:11;28.80;21.60
34815;DHT22;21030;53.912;15.214;2023-04-19T12:41:39;28.60;21.70
34815;DHT22;21030;53.912;15.214;2023-04-19T12:44:06;28.80;22.00
34815;DHT22;21030;53.912;15.214;2023-04-19T12:46:33;29.10;21.90
34815;DHT22;21030;53.912;15.214;2023-04-19T12:49:01;29.10;22.10
34815;DHT22;21030;53.912;15.214;2023-04-19T12:51:29;28.90;22.10
34815;DHT22;21030;53.912;15.214;2023-04-19T12:53:57;28.10;22.50
34815;DHT22;21030;53.912;15.214;2023-04-19T12:56:25;28.80;22.80
34815;DHT22;21030;53.912;15.214;2023-04-19T12:58:52;29.60;22.30
34815;DHT22;21030;53.912;15.214;2023-04-19T13:01:19;29.50;21.80
34815;DHT22;21030;53.912;15.214;2023-04-19T13:03:46;29.80;21.90
34815;DHT22;21030;53.912;15.214;2023-04-19T13:06:14;30.60;22.00
34815;DHT22;21030;53.912;15.214;2023-04-19T13:08:43;30.10;21.50
34815;DHT22;21030;53.912;15.214;2023-04-19T13:11:14;29.70;21.70
34815;DHT22;21030;53.912;15.214;2023-04-19T13:13:41;28.90;22.30
34815;DHT22;21030;53.912;15.214;2023-04-19T13:16:08;29.80;22.70
34815;DHT22;21030;53.912;15.214;2023-04-19T13:18:36;29.70;22.10
34815;DHT22;21030;53.912;15.214;2023-04-19T13:21:04;29.40;22.30
34815;DHT22;21030;53.912;15.214;2023-04-19T13:23:34;29.40;23.00
34815;DHT22;21030;53.912;15.214;2023-04-19T13:26:01;29.70;23.00
34815;DHT22;21030;53.912;15.214;2023-04-19T13:28:29;29.10;22.90
34815;DHT22;21030;53.912;15.214;2023-04-19T13:30:56;28.40;23.90
34815;DHT22;21030;53.912;15.214;2023-04-19T13:33:25;28.80;24.00
34815;DHT22;21030;53.912;15.214;2023-04-19T13:35:52;28.80;24.00
34815;DHT22;21030;53.912;15.214;2023-04-19T13:38:19;28.80;24.40
34815;DHT22;21030;53.912;15.214;2023-04-19T13:40:46;29.70;24.40
34815;DHT22;21030;53.912;15.214;2023-04-19T13:43:13;28.90;24.90
34815;DHT22;21030;53.912;15.214;2023-04-19T13:45:40;29.00;25.10
34815;DHT22;21030;53.912;15.214;2023-04-19T13:48:07;29.30;25.10
34815;DHT22;21030;53.912;15.214;2023-04-19T13:50:34;28.60;25.00
34815;DHT22;21030;53.912;15.214;2023-04-19T13:53:01;27.70;25.90
34815;DHT22;21030;53.912;15.214;2023-04-19T13:55:28;27.80;26.30
34815;DHT22;21030;53.912;15.214;2023-04-19T13:57:56;28.80;26.10
34815;DHT22;21030;53.912;15.214;2023-04-19T14:00:23;27.90;26.00
34815;DHT22;21030;53.912;15.214;2023-04-19T14:02:50;28.70;25.90
34815;DHT22;21030;53.912;15.214;2023-04-19T14:05:18;28.30;25.60
34815;DHT22;21030;53.912;15.214;2023-04-19T14:07:45;28.70;26.10
34815;DHT22;21030;53.912;15.214;2023-04-19T14:10:12;29.30;25.50
34815;DHT22;21030;53.912;15.214;2023-04-19T14:12:39;30.00;25.20
34815;DHT22;21030;53.912;15.214;2023-04-19T14:15:07;29.40;25.20
34815;DHT22;21030;53.912;15.214;2023-04-19T14:17:34;29.80;25.40
34815;DHT22;21030;53.912;15.214;2023-04-19T14:20:02;29.80;25.10
34815;DHT22;21030;53.912;15.214;2023-04-19T14:22:33;29.80;25.30
34815;DHT22;21030;53.912;15.214;2023-04-19T14:25:02;29.20;25.50
34815;DHT22;21030;53.912;15.214;2023-04-19T14:27:30;28.90;25.90
34815;DHT22;21030;53.912;15.214;2023-04-19T14:29:57;28.90;25.90
34815;DHT22;21030;53.912;15.214;2023-04-19T14:32:26;28.90;26.20
34815;DHT22;21030;53.912;15.214;2023-04-19T14:34:54;29.20;25.90
34815;DHT22;21030;53.912;15.214;2023-04-19T14:37:22;29.30;25.70
34815;DHT22;21030;53.912;15.214;2023-04-19T14:39:50;29.80;25.50
34815;DHT22;21030;53.912;15.214;2023-04-19T14:42:18;29.30;25.20
34815;DHT22;21030;53.912;15.214;2023-04-19T14:44:50;29.20;25.70
34815;DHT22;21030;53.912;15.214;2023-04-19T14:47:17;29.50;25.40
34815;DHT22;21030;53.912;15.214;2023-04-19T14:49:44;29.60;25.50
34815;DHT22;21030;53.912;15.214;2023-04-19T14:52:11;29.30;25.20
34815;DHT22;21030;53.912;15.214;2023-04-19T14:54:40;28.50;25.30
34815;DHT22;21030;53.912;15.214;2023-04-19T14:57:08;28.90;25.60
34815;DHT22;21030;53.912;15.214;2023-04-19T14:59:35;28.20;25.70
34815;DHT22;21030;53.912;15.214;2023-04-19T15:02:02;28.60;25.90
34815;DHT22;21030;53.912;15.214;2023-04-19T15:04:29;28.30;25.60
34815;DHT22;21030;53.912;15.214;2023-04-19T15:06:59;29.20;25.60
34815;DHT22;21030;53.912;15.214;2023-04-19T15:09:27;30.10;24.80
34815;DHT22;21030;53.912;15.214;2023-04-19T15:11:53;30.10;24.80
34815;DHT22;21030;53.912;15.214;2023-04-19T15:14:21;30.20;24.40
34815;DHT22;21030;53.912;15.214;2023-04-19T15:16:48;29.90;24.30
34815;DHT22;21030;53.912;15.214;2023-04-19T15:19:15;29.70;24.60
34815;DHT22;21030;53.912;15.214;2023-04-19T15:21:43;28.50;24.40
34815;DHT22;21030;53.912;15.214;2023-04-19T15:24:10;29.00;25.10
34815;DHT22;21030;53.912;15.214;2023-04-19T15:26:39;29.80;24.80
34815;DHT22;21030;53.912;15.214;2023-04-19T15:29:09;29.80;24.50
34815;DHT22;21030;53.912;15.214;2023-04-19T15:31:37;29.60;24.40
34815;DHT22;21030;53.912;15.214;2023-04-19T15:34:04;29.50;24.40
34815;DHT22;21030;53.912;15.214;2023-04-19T15:36:32;29.80;24.60